Browns Park, Colorado
Current Conditions -  °F | °C
As of 5:53 PM on Friday 28 Nov 2014 (Local Time) from KVEL Reporting Station
Clear Clear  
Wind Chill: 31°   Ceiling: Unl
Heat Index: 35°   Visibility: 8mi
Dew Point: 22°   Wind: 5mph
Humidity: 59%   Direction: 310°NW
Pressure: 29.97"   Gusts: NA
Location:  40.7245°N, 108.541°W
Report Text: KVEL 290053Z AUTO 31004KT 8SM CLR 02/M06 A2997 RMK AO2 SLP168 T00171056
Loading
Personal Weather Stations






























Interactive Weather Map New forecast layout! Learn more

10-Day Weather Forecast

Advertisements
Track Severe Weather on mobile